createdAt,value
2022-09-21T00:01:10.942Z,100.00
2022-09-21T00:03:37.989Z,100.00
2022-09-21T00:06:06.968Z,100.00
2022-09-21T00:08:34.378Z,100.00
2022-09-21T00:11:01.874Z,100.00
2022-09-21T00:13:28.632Z,100.00
2022-09-21T00:15:55.919Z,100.00
2022-09-21T00:18:23.217Z,100.00
2022-09-21T00:20:50.179Z,100.00
2022-09-21T00:23:16.764Z,100.00
2022-09-21T00:25:43.329Z,100.00
2022-09-21T00:28:10.059Z,100.00
2022-09-21T00:30:37.720Z,100.00
2022-09-21T00:33:04.459Z,100.00
2022-09-21T00:35:31.270Z,100.00
2022-09-21T00:38:02.426Z,100.00
2022-09-21T00:40:29.933Z,100.00
2022-09-21T00:43:16.759Z,100.00
2022-09-21T00:45:47.031Z,100.00
2022-09-21T00:48:15.313Z,100.00
2022-09-21T00:50:48.569Z,100.00
2022-09-21T00:53:16.047Z,100.00
2022-09-21T00:55:49.155Z,100.00
2022-09-21T00:58:20.900Z,100.00
2022-09-21T01:00:47.646Z,100.00
2022-09-21T01:03:14.318Z,100.00
2022-09-21T01:05:40.967Z,100.00
2022-09-21T01:08:12.404Z,100.00
2022-09-21T01:10:47.496Z,100.00
2022-09-21T01:13:40.461Z,100.00
2022-09-21T01:16:09.825Z,100.00
2022-09-21T01:18:36.465Z,100.00
2022-09-21T01:21:09.840Z,100.00
2022-09-21T01:27:16.089Z,100.00
2022-09-21T01:29:49.642Z,100.00
2022-09-21T01:32:47.482Z,100.00
2022-09-21T01:35:22.789Z,100.00
2022-09-21T01:37:53.212Z,100.00
2022-09-21T01:40:35.870Z,100.00
2022-09-21T01:43:06.205Z,100.00
2022-09-21T01:45:38.040Z,100.00
2022-09-21T01:48:05.944Z,100.00
2022-09-21T01:50:37.864Z,100.00
2022-09-21T01:53:10.417Z,100.00
2022-09-21T01:55:43.661Z,100.00
2022-09-21T01:58:13.849Z,100.00
2022-09-21T02:00:44.077Z,100.00
2022-09-21T02:03:27.331Z,100.00
2022-09-21T02:05:58.191Z,100.00
2022-09-21T02:08:27.969Z,100.00
2022-09-21T02:10:54.941Z,100.00
2022-09-21T02:13:26.824Z,100.00
2022-09-21T02:16:06.671Z,100.00
2022-09-21T02:19:16.599Z,100.00
2022-09-21T02:22:03.411Z,100.00
2022-09-21T02:24:51.077Z,100.00
2022-09-21T02:27:36.073Z,100.00
2022-09-21T02:30:09.227Z,100.00
2022-09-21T02:32:39.037Z,100.00
2022-09-21T02:35:21.380Z,100.00
2022-09-21T02:37:57.639Z,100.00
2022-09-21T02:40:46.488Z,100.00
2022-09-21T02:43:22.368Z,100.00
2022-09-21T02:45:59.086Z,100.00
2022-09-21T02:48:41.833Z,100.00
2022-09-21T02:51:22.401Z,100.00
2022-09-21T02:53:52.059Z,100.00
2022-09-21T02:56:19.149Z,100.00
2022-09-21T02:58:54.193Z,100.00
2022-09-21T03:01:22.799Z,100.00
2022-09-21T03:03:49.915Z,100.00
2022-09-21T03:06:16.576Z,100.00
2022-09-21T03:08:43.734Z,100.00
2022-09-21T03:11:11.482Z,100.00
2022-09-21T03:13:39.047Z,100.00
2022-09-21T03:16:07.229Z,100.00
2022-09-21T03:18:34.993Z,100.00
2022-09-21T03:21:02.966Z,100.00
2022-09-21T03:23:31.865Z,100.00
2022-09-21T03:25:58.731Z,100.00
2022-09-21T03:28:25.572Z,100.00
2022-09-21T03:30:52.475Z,100.00
2022-09-21T03:33:20.493Z,100.00
2022-09-21T03:35:50.854Z,100.00
2022-09-21T03:38:18.633Z,100.00
2022-09-21T03:40:46.444Z,100.00
2022-09-21T03:43:13.556Z,100.00
2022-09-21T03:45:43.488Z,100.00
2022-09-21T03:48:12.066Z,100.00
2022-09-21T03:50:39.350Z,100.00
2022-09-21T03:53:06.881Z,100.00
2022-09-21T03:55:34.746Z,100.00
2022-09-21T03:58:02.332Z,100.00
2022-09-21T04:00:29.953Z,100.00
2022-09-21T04:02:57.100Z,100.00
2022-09-21T04:05:23.945Z,100.00
2022-09-21T04:07:50.707Z,100.00
2022-09-21T04:10:22.891Z,100.00
2022-09-21T04:12:49.896Z,100.00
2022-09-21T04:15:19.715Z,100.00
2022-09-21T04:17:50.969Z,100.00
2022-09-21T04:20:18.123Z,100.00
2022-09-21T04:22:45.190Z,100.00
2022-09-21T04:25:12.796Z,100.00
2022-09-21T04:27:39.738Z,100.00
2022-09-21T04:30:07.139Z,100.00
2022-09-21T04:32:34.097Z,100.00
2022-09-21T04:35:00.757Z,100.00
2022-09-21T04:37:27.505Z,100.00
2022-09-21T04:39:54.165Z,100.00
2022-09-21T04:42:20.918Z,100.00
2022-09-21T04:44:47.760Z,100.00
2022-09-21T04:47:14.465Z,100.00
2022-09-21T04:49:41.187Z,100.00
2022-09-21T04:52:08.078Z,100.00
2022-09-21T04:54:34.794Z,100.00
2022-09-21T04:57:02.480Z,100.00
2022-09-21T04:59:29.187Z,100.00
2022-09-21T05:01:55.953Z,100.00
2022-09-21T05:04:22.670Z,100.00
2022-09-21T05:06:49.432Z,100.00
2022-09-21T05:09:35.187Z,100.00
2022-09-21T05:12:03.101Z,100.00
2022-09-21T05:14:29.928Z,100.00
2022-09-21T05:16:56.685Z,100.00
2022-09-21T05:19:23.602Z,100.00
2022-09-21T05:21:50.457Z,100.00
2022-09-21T05:24:17.291Z,100.00
2022-09-21T05:26:43.965Z,100.00
2022-09-21T05:29:16.691Z,100.00
2022-09-21T05:31:51.810Z,100.00
2022-09-21T05:34:51.543Z,100.00
2022-09-21T05:37:40.817Z,100.00
2022-09-21T05:40:10.648Z,100.00
2022-09-21T05:42:37.896Z,100.00
2022-09-21T05:45:05.715Z,100.00
2022-09-21T05:47:32.350Z,100.00
2022-09-21T05:50:23.500Z,100.00
2022-09-21T05:53:24.293Z,100.00
2022-09-21T05:56:04.377Z,100.00
2022-09-21T05:58:52.518Z,100.00
2022-09-21T06:01:31.050Z,100.00
2022-09-21T06:03:59.628Z,100.00
2022-09-21T06:06:26.265Z,100.00
2022-09-21T06:08:52.977Z,100.00
2022-09-21T06:11:19.839Z,100.00
2022-09-21T06:13:46.503Z,100.00
2022-09-21T06:16:13.253Z,100.00
2022-09-21T06:18:42.296Z,100.00
2022-09-21T06:21:09.740Z,100.00
2022-09-21T06:23:37.761Z,100.00
2022-09-21T06:26:04.733Z,100.00
2022-09-21T06:28:31.611Z,100.00
2022-09-21T06:30:58.689Z,100.00
2022-09-21T06:33:25.830Z,100.00
2022-09-21T06:35:56.678Z,100.00
2022-09-21T06:38:24.827Z,100.00
2022-09-21T06:40:52.349Z,100.00
2022-09-21T06:43:19.400Z,100.00
2022-09-21T06:45:56.939Z,100.00
2022-09-21T06:48:24.306Z,100.00
2022-09-21T06:50:51.283Z,100.00
2022-09-21T06:53:18.196Z,100.00
2022-09-21T06:55:45.007Z,100.00
2022-09-21T06:58:11.795Z,100.00
2022-09-21T07:00:38.586Z,100.00
2022-09-21T07:03:05.693Z,100.00
2022-09-21T07:05:34.178Z,100.00
2022-09-21T07:08:01.231Z,100.00
2022-09-21T07:10:28.449Z,100.00
2022-09-21T07:12:55.468Z,100.00
2022-09-21T07:15:22.326Z,100.00
2022-09-21T07:17:52.210Z,100.00
2022-09-21T07:20:19.438Z,100.00
2022-09-21T07:22:46.206Z,100.00
2022-09-21T07:25:13.036Z,100.00
2022-09-21T07:27:40.145Z,100.00
2022-09-21T07:30:07.819Z,100.00
2022-09-21T07:32:34.769Z,100.00
2022-09-21T07:35:01.459Z,100.00
2022-09-21T07:37:28.835Z,100.00
2022-09-21T07:39:56.607Z,100.00
2022-09-21T07:42:28.156Z,100.00
2022-09-21T07:45:03.330Z,100.00
2022-09-21T07:47:31.368Z,100.00
2022-09-21T07:49:58.065Z,100.00
2022-09-21T07:52:24.779Z,100.00
2022-09-21T07:54:51.461Z,100.00
2022-09-21T07:57:36.890Z,100.00
2022-09-21T08:00:05.041Z,100.00
2022-09-21T08:02:40.137Z,100.00
2022-09-21T08:05:10.012Z,100.00
2022-09-21T08:07:36.819Z,100.00
2022-09-21T08:10:03.574Z,100.00
2022-09-21T08:12:30.238Z,100.00
2022-09-21T08:14:57.052Z,100.00
2022-09-21T08:17:29.839Z,100.00
2022-09-21T08:19:56.564Z,100.00
2022-09-21T08:22:26.112Z,100.00
2022-09-21T08:24:55.023Z,100.00
2022-09-21T08:27:24.815Z,100.00
2022-09-21T08:29:52.041Z,100.00
2022-09-21T08:32:39.465Z,98.18
2022-09-21T08:35:05.822Z,90.71
2022-09-21T08:37:33.216Z,86.65
2022-09-21T08:40:02.545Z,87.36
2022-09-21T08:42:50.594Z,88.50
2022-09-21T08:45:21.135Z,79.60
2022-09-21T08:47:53.286Z,79.04
2022-09-21T08:50:53.079Z,78.58
2022-09-21T08:53:41.530Z,82.15
2022-09-21T08:56:11.899Z,73.45
2022-09-21T08:58:42.592Z,74.40
2022-09-21T09:01:32.752Z,77.36
2022-09-21T09:04:36.825Z,73.02
2022-09-21T09:07:15.687Z,64.61
2022-09-21T09:10:16.629Z,67.04
2022-09-21T09:12:43.213Z,67.35
2022-09-21T09:15:40.352Z,76.43
2022-09-21T09:18:19.202Z,71.18
2022-09-21T09:20:53.817Z,74.44
2022-09-21T09:23:57.707Z,73.92
2022-09-21T09:26:33.858Z,73.51
2022-09-21T09:29:11.656Z,71.97
2022-09-21T09:31:40.714Z,71.96
2022-09-21T09:34:34.955Z,75.47
2022-09-21T09:37:11.742Z,71.71
2022-09-21T09:39:39.731Z,68.58
2022-09-21T09:42:27.887Z,66.69
2022-09-21T09:45:03.088Z,71.48
2022-09-21T09:47:41.629Z,72.82
2022-09-21T09:50:20.378Z,72.33
2022-09-21T09:52:54.269Z,69.92
2022-09-21T09:55:30.339Z,63.31
2022-09-21T09:58:00.085Z,67.41
2022-09-21T10:00:26.773Z,63.15
2022-09-21T10:02:55.791Z,61.66
2022-09-21T10:05:28.670Z,58.33
2022-09-21T10:07:55.366Z,59.17
2022-09-21T10:10:33.751Z,59.71
2022-09-21T10:13:21.896Z,57.26
2022-09-21T10:15:55.635Z,56.01
2022-09-21T10:18:27.114Z,54.71
2022-09-21T10:21:02.849Z,55.84
2022-09-21T10:23:31.012Z,54.73
2022-09-21T10:26:04.465Z,54.11
2022-09-21T10:28:31.715Z,55.41
2022-09-21T10:31:09.507Z,53.87
2022-09-21T10:33:48.221Z,54.22
2022-09-21T10:36:41.092Z,54.77
2022-09-21T10:39:34.454Z,55.26
2022-09-21T10:42:17.843Z,53.36
2022-09-21T10:44:47.158Z,51.34
2022-09-21T10:47:34.120Z,50.08
2022-09-21T10:50:04.358Z,50.58
2022-09-21T10:52:41.407Z,49.95
2022-09-21T10:55:16.858Z,50.84
2022-09-21T10:57:44.733Z,51.47
2022-09-21T11:00:23.565Z,50.92
2022-09-21T11:02:50.891Z,52.64
2022-09-21T11:05:25.364Z,53.79
2022-09-21T11:08:13.677Z,51.89
2022-09-21T11:11:08.260Z,50.69
2022-09-21T11:14:10.150Z,51.60
2022-09-21T11:16:52.220Z,51.16
2022-09-21T11:19:31.049Z,51.51
2022-09-21T11:22:08.418Z,51.31
2022-09-21T11:25:04.976Z,49.24
2022-09-21T11:27:37.105Z,49.61
2022-09-21T11:30:14.007Z,47.50
2022-09-21T11:33:28.202Z,47.70
2022-09-21T11:35:54.872Z,48.26
2022-09-21T11:38:32.288Z,48.82
2022-09-21T11:41:02.022Z,46.60
2022-09-21T11:43:50.583Z,46.42
2022-09-21T11:46:47.448Z,45.82
2022-09-21T11:49:38.977Z,45.47
2022-09-21T11:52:36.824Z,45.85
2022-09-21T11:55:42.412Z,46.54
2022-09-21T11:58:30.841Z,47.29
2022-09-21T12:01:12.133Z,46.04
2022-09-21T12:04:07.840Z,46.21
2022-09-21T12:07:05.693Z,45.61
2022-09-21T12:09:38.710Z,45.14
2022-09-21T12:12:42.347Z,43.94
2022-09-21T12:15:24.741Z,44.10
2022-09-21T12:18:06.682Z,44.32
2022-09-21T12:20:42.566Z,44.78
2022-09-21T12:23:16.741Z,43.91
2022-09-21T12:25:53.608Z,44.29
2022-09-21T12:28:28.918Z,45.57
2022-09-21T12:31:04.256Z,48.84
2022-09-21T12:33:43.068Z,50.45
2022-09-21T12:36:17.254Z,52.01
2022-09-21T12:39:07.722Z,50.94
2022-09-21T12:42:06.615Z,51.23
2022-09-21T12:44:54.831Z,49.43
2022-09-21T12:47:58.062Z,51.33
2022-09-21T12:50:45.140Z,52.95
2022-09-21T12:53:21.191Z,54.11
2022-09-21T12:56:12.248Z,54.41
2022-09-21T12:58:45.853Z,54.96
2022-09-21T13:01:12.529Z,56.15
2022-09-21T13:03:52.536Z,57.98
2022-09-21T13:06:43.536Z,59.06
2022-09-21T13:09:14.892Z,57.55
2022-09-21T13:12:07.598Z,54.59
2022-09-21T13:14:41.505Z,56.72
2022-09-21T13:17:20.482Z,58.60
2022-09-21T13:20:01.751Z,58.70
2022-09-21T13:22:33.374Z,59.91
2022-09-21T13:25:06.986Z,62.09
2022-09-21T13:28:00.795Z,58.85
2022-09-21T13:30:33.537Z,55.35
2022-09-21T13:33:02.398Z,54.47
2022-09-21T13:35:50.264Z,54.07
2022-09-21T13:38:28.655Z,53.71
2022-09-21T13:41:25.895Z,53.40
2022-09-21T13:44:18.790Z,49.84
2022-09-21T13:46:49.849Z,47.94
2022-09-21T13:49:19.552Z,48.80
2022-09-21T13:52:13.474Z,48.38
2022-09-21T13:54:56.958Z,48.16
2022-09-21T13:57:47.217Z,48.09
2022-09-21T14:00:13.847Z,48.78
2022-09-21T14:03:04.065Z,49.48
2022-09-21T14:05:43.127Z,49.44
2022-09-21T14:08:15.925Z,48.44
2022-09-21T14:10:54.448Z,48.56
2022-09-21T14:13:29.897Z,50.03
2022-09-21T14:16:26.490Z,50.64
2022-09-21T14:18:53.569Z,49.74
2022-09-21T14:21:21.486Z,50.76
2022-09-21T14:24:06.787Z,49.78
2022-09-21T14:26:44.085Z,50.31
2022-09-21T14:29:20.949Z,50.55
2022-09-21T14:31:49.758Z,50.51
2022-09-21T14:34:23.877Z,50.94
2022-09-21T14:36:54.745Z,49.14
2022-09-21T14:39:54.583Z,51.03
2022-09-21T14:42:27.858Z,51.83
2022-09-21T14:45:01.316Z,51.54
2022-09-21T14:48:05.827Z,52.04
2022-09-21T14:50:42.701Z,52.57
2022-09-21T14:54:02.948Z,54.39
2022-09-21T14:57:07.771Z,57.26
2022-09-21T14:59:53.418Z,60.44
2022-09-21T15:02:25.350Z,61.04
2022-09-21T15:05:23.070Z,60.90
2022-09-21T15:08:18.854Z,59.37
2022-09-21T15:11:14.908Z,57.59
2022-09-21T15:13:58.307Z,57.00
2022-09-21T15:16:40.559Z,55.86
2022-09-21T15:19:13.832Z,55.86
2022-09-21T15:21:43.811Z,55.28
2022-09-21T15:24:20.227Z,55.01
2022-09-21T15:26:51.527Z,56.16
2022-09-21T15:29:24.605Z,57.70
2022-09-21T15:31:51.830Z,58.14
2022-09-21T15:34:19.475Z,58.03
2022-09-21T15:37:17.261Z,57.48
2022-09-21T15:39:44.145Z,56.48
2022-09-21T15:42:21.742Z,56.57
2022-09-21T15:44:50.694Z,55.03
2022-09-21T15:47:23.053Z,55.61
2022-09-21T15:49:51.711Z,56.04
2022-09-21T15:52:31.434Z,56.23
2022-09-21T15:55:22.122Z,56.47
2022-09-21T15:57:51.538Z,57.31
2022-09-21T16:00:20.226Z,56.51
2022-09-21T16:03:13.540Z,59.82
2022-09-21T16:05:50.647Z,61.05
2022-09-21T16:08:35.530Z,61.33
2022-09-21T16:11:19.298Z,62.15
2022-09-21T16:14:29.885Z,62.64
2022-09-21T16:17:11.585Z,63.00
2022-09-21T16:19:43.914Z,64.91
2022-09-21T16:22:17.526Z,66.39
2022-09-21T16:24:54.169Z,67.67
2022-09-21T16:27:25.634Z,68.67
2022-09-21T16:29:53.814Z,69.55
2022-09-21T16:32:34.024Z,70.97
2022-09-21T16:35:28.558Z,72.25
2022-09-21T16:37:58.693Z,72.92
2022-09-21T16:40:27.153Z,73.33
2022-09-21T16:42:54.653Z,73.24
2022-09-21T16:45:29.600Z,73.28
2022-09-21T16:47:57.596Z,67.14
2022-09-21T16:50:24.497Z,59.31
2022-09-21T16:52:52.348Z,55.85
2022-09-21T16:55:20.743Z,54.59
2022-09-21T16:57:49.287Z,57.66
2022-09-21T17:00:21.992Z,62.67
2022-09-21T17:02:49.525Z,68.69
2022-09-21T17:05:18.068Z,72.63
2022-09-21T17:07:58.666Z,74.11
2022-09-21T17:10:30.485Z,76.14
2022-09-21T17:12:58.140Z,79.57
2022-09-21T17:15:25.590Z,81.31
2022-09-21T17:17:52.367Z,83.67
2022-09-21T17:20:33.421Z,84.72
2022-09-21T17:23:02.018Z,86.76
2022-09-21T17:25:30.070Z,87.65
2022-09-21T17:27:59.844Z,88.89
2022-09-21T17:30:28.281Z,90.52
2022-09-21T17:32:55.893Z,91.17
2022-09-21T17:35:31.262Z,92.86
2022-09-21T17:37:58.438Z,93.30
2022-09-21T17:40:26.257Z,95.68
2022-09-21T17:43:01.079Z,97.87
2022-09-21T17:45:40.675Z,98.15
2022-09-21T17:48:33.228Z,98.97
2022-09-21T17:51:01.143Z,100.00
2022-09-21T17:53:34.489Z,100.00
2022-09-21T17:56:17.932Z,100.00
2022-09-21T17:58:51.618Z,100.00
2022-09-21T18:01:39.922Z,100.00
2022-09-21T18:04:35.046Z,100.00
2022-09-21T18:07:03.105Z,100.00
2022-09-21T18:09:30.064Z,100.00
2022-09-21T18:12:15.254Z,100.00
2022-09-21T18:14:41.949Z,100.00
2022-09-21T18:17:15.709Z,100.00
2022-09-21T18:20:24.394Z,100.00
2022-09-21T18:23:05.654Z,100.00
2022-09-21T18:25:35.615Z,100.00
2022-09-21T18:28:12.678Z,100.00
2022-09-21T18:30:45.674Z,100.00
2022-09-21T18:33:24.224Z,100.00
2022-09-21T18:36:01.482Z,100.00
2022-09-21T18:38:40.325Z,100.00
2022-09-21T18:41:34.032Z,100.00
2022-09-21T18:44:09.173Z,100.00
2022-09-21T18:46:48.740Z,100.00
2022-09-21T18:49:45.840Z,100.00
2022-09-21T18:52:18.471Z,100.00
2022-09-21T18:54:45.539Z,100.00
2022-09-21T18:57:14.301Z,100.00
2022-09-21T18:59:42.062Z,100.00
2022-09-21T19:02:15.452Z,100.00
2022-09-21T19:04:43.429Z,100.00
2022-09-21T19:07:39.046Z,100.00
2022-09-21T19:10:33.043Z,100.00
2022-09-21T19:13:32.209Z,100.00
2022-09-21T19:16:20.483Z,100.00
2022-09-21T19:19:02.714Z,100.00
2022-09-21T19:22:24.453Z,100.00
2022-09-21T19:25:04.378Z,100.00
2022-09-21T19:27:54.820Z,100.00
2022-09-21T19:30:33.608Z,100.00
2022-09-21T19:33:32.343Z,100.00
2022-09-21T19:36:05.068Z,100.00
2022-09-21T19:38:34.164Z,100.00
2022-09-21T19:41:04.986Z,100.00
2022-09-21T19:43:42.950Z,100.00
2022-09-21T19:46:34.743Z,100.00
2022-09-21T19:49:20.533Z,100.00
2022-09-21T19:51:55.904Z,100.00
2022-09-21T19:54:43.825Z,100.00
2022-09-21T19:57:38.227Z,100.00
2022-09-21T20:00:08.426Z,100.00
2022-09-21T20:03:03.679Z,100.00
2022-09-21T20:05:54.843Z,100.00
2022-09-21T20:08:24.676Z,100.00
2022-09-21T20:11:15.918Z,100.00
2022-09-21T20:13:45.542Z,100.00
2022-09-21T20:16:24.613Z,100.00
2022-09-21T20:18:58.921Z,100.00
2022-09-21T20:21:37.074Z,100.00
2022-09-21T20:24:46.462Z,100.00
2022-09-21T20:27:32.918Z,100.00
2022-09-21T20:29:59.986Z,100.00
2022-09-21T20:32:27.211Z,100.00
2022-09-21T20:34:54.001Z,100.00
2022-09-21T20:37:22.375Z,100.00
2022-09-21T20:39:49.244Z,100.00
2022-09-21T20:42:20.993Z,100.00
2022-09-21T20:44:47.716Z,100.00
2022-09-21T20:47:14.492Z,100.00
2022-09-21T20:49:41.202Z,100.00
2022-09-21T20:52:09.412Z,100.00
2022-09-21T20:54:36.339Z,100.00
2022-09-21T20:57:03.133Z,100.00
2022-09-21T20:59:29.809Z,100.00
2022-09-21T21:01:56.622Z,100.00
2022-09-21T21:04:23.470Z,100.00
2022-09-21T21:06:50.350Z,100.00
2022-09-21T21:09:17.170Z,100.00
2022-09-21T21:11:44.005Z,100.00
2022-09-21T21:14:10.613Z,100.00
2022-09-21T21:16:58.251Z,100.00
2022-09-21T21:19:24.945Z,100.00
2022-09-21T21:21:51.749Z,100.00
2022-09-21T21:24:36.965Z,100.00
2022-09-21T21:27:04.029Z,100.00
2022-09-21T21:29:31.988Z,100.00
2022-09-21T21:31:59.757Z,100.00
2022-09-21T21:34:29.920Z,100.00
2022-09-21T21:37:05.887Z,100.00
2022-09-21T21:39:33.766Z,100.00
2022-09-21T21:42:00.437Z,100.00
2022-09-21T21:44:27.585Z,100.00
2022-09-21T21:46:54.765Z,100.00
2022-09-21T21:49:21.552Z,100.00
2022-09-21T21:51:49.325Z,100.00
2022-09-21T21:54:22.357Z,100.00
2022-09-21T21:56:50.550Z,100.00
2022-09-21T21:59:18.132Z,100.00
2022-09-21T22:01:47.830Z,100.00
2022-09-21T22:04:14.682Z,100.00
2022-09-21T22:06:41.900Z,100.00
2022-09-21T22:09:10.546Z,100.00
2022-09-21T22:11:38.401Z,100.00
2022-09-21T22:14:06.242Z,100.00
2022-09-21T22:16:34.900Z,100.00
2022-09-21T22:19:04.613Z,100.00
2022-09-21T22:21:37.926Z,100.00
2022-09-21T22:24:05.896Z,100.00
2022-09-21T22:26:37.082Z,100.00
2022-09-21T22:29:05.655Z,100.00
2022-09-21T22:31:35.762Z,100.00
2022-09-21T22:34:02.687Z,100.00
2022-09-21T22:36:34.204Z,100.00
2022-09-21T22:39:01.412Z,100.00
2022-09-21T22:41:30.345Z,100.00
2022-09-21T22:44:04.726Z,100.00
2022-09-21T22:46:32.738Z,100.00
2022-09-21T22:49:00.598Z,100.00
2022-09-21T22:51:28.691Z,100.00
2022-09-21T22:53:55.789Z,100.00
2022-09-21T22:56:28.522Z,100.00
2022-09-21T22:58:57.577Z,100.00
2022-09-21T23:01:30.109Z,100.00
2022-09-21T23:03:59.657Z,100.00
2022-09-21T23:06:29.692Z,100.00
2022-09-21T23:08:57.636Z,100.00
2022-09-21T23:11:27.489Z,100.00
2022-09-21T23:13:55.669Z,100.00
2022-09-21T23:16:23.759Z,100.00
2022-09-21T23:18:50.966Z,100.00
2022-09-21T23:21:21.392Z,100.00
2022-09-21T23:23:48.948Z,100.00
2022-09-21T23:26:21.136Z,100.00
2022-09-21T23:28:53.686Z,100.00
2022-09-21T23:31:20.523Z,100.00
2022-09-21T23:33:49.856Z,100.00
2022-09-21T23:36:19.801Z,100.00
2022-09-21T23:38:47.614Z,100.00
2022-09-21T23:41:17.377Z,100.00
2022-09-21T23:43:45.400Z,100.00
2022-09-21T23:46:15.203Z,100.00
2022-09-21T23:48:43.226Z,100.00
2022-09-21T23:51:10.515Z,100.00
2022-09-21T23:53:37.689Z,100.00
2022-09-21T23:56:05.832Z,100.00
2022-09-21T23:58:32.887Z,100.00
